Jamestown, North Dakota
Current Conditions -  °F | °C
As of 2:56 AM on Wednesday 28 Jan 2015 (Local Time) from KJMS Reporting Station
Moderate Fog Moderate Fog  
Wind Chill: 23°   Ceiling: 200
Heat Index: 32°   Visibility: 0.25mi
Dew Point: 32°   Wind: 12mph
Humidity: 100%   Direction: 170°S
Pressure: 29.76"   Gusts: NA
Location:  46.91°N, 98.71°W
Report Text: KJMS 280856Z AUTO 17010KT 1/4SM FG VV002 00/00 A2976 RMK AO2 SLP091 T00000000 56020
Loading
Personal Weather Stations






























Interactive Weather Map New forecast layout! Learn more

10-Day Weather Forecast

Advertisements
Track Severe Weather on mobile